sensor_id;sensor_type;location;lat;lon;timestamp;temperature;humidity
14908;DHT22;7545;52.092;7.006;2022-09-12T00:00:12;16.70;99.90
14908;DHT22;7545;52.092;7.006;2022-09-12T00:02:38;16.60;99.90
14908;DHT22;7545;52.092;7.006;2022-09-12T00:05:04;16.60;99.90
14908;DHT22;7545;52.092;7.006;2022-09-12T00:07:31;16.60;99.90
14908;DHT22;7545;52.092;7.006;2022-09-12T00:09:57;16.60;99.90
14908;DHT22;7545;52.092;7.006;2022-09-12T00:12:23;16.60;99.90
14908;DHT22;7545;52.092;7.006;2022-09-12T00:14:49;16.60;99.90
14908;DHT22;7545;52.092;7.006;2022-09-12T00:17:14;16.60;99.90
14908;DHT22;7545;52.092;7.006;2022-09-12T00:19:40;16.60;99.90
14908;DHT22;7545;52.092;7.006;2022-09-12T00:22:05;16.60;99.90
14908;DHT22;7545;52.092;7.006;2022-09-12T00:24:31;16.50;99.90
14908;DHT22;7545;52.092;7.006;2022-09-12T00:26:58;16.50;99.90
14908;DHT22;7545;52.092;7.006;2022-09-12T00:29:24;16.50;99.90
14908;DHT22;7545;52.092;7.006;2022-09-12T00:31:49;16.50;99.90
14908;DHT22;7545;52.092;7.006;2022-09-12T00:34:15;16.50;99.90
14908;DHT22;7545;52.092;7.006;2022-09-12T00:36:40;16.40;99.90
14908;DHT22;7545;52.092;7.006;2022-09-12T00:39:07;16.40;99.90
14908;DHT22;7545;52.092;7.006;2022-09-12T00:41:38;16.40;99.90
14908;DHT22;7545;52.092;7.006;2022-09-12T00:49:33;16.30;99.90
14908;DHT22;7545;52.092;7.006;2022-09-12T00:55:09;16.20;99.90
14908;DHT22;7545;52.092;7.006;2022-09-12T00:58:16;16.20;99.90
14908;DHT22;7545;52.092;7.006;2022-09-12T01:00:34;16.20;99.90
14908;DHT22;7545;52.092;7.006;2022-09-12T01:03:03;16.20;99.90
14908;DHT22;7545;52.092;7.006;2022-09-12T01:05:33;16.20;99.90
14908;DHT22;7545;52.092;7.006;2022-09-12T01:08:01;16.20;99.90
14908;DHT22;7545;52.092;7.006;2022-09-12T01:10:27;16.20;99.90
14908;DHT22;7545;52.092;7.006;2022-09-12T01:12:53;16.10;99.90
14908;DHT22;7545;52.092;7.006;2022-09-12T01:15:18;16.10;99.90
14908;DHT22;7545;52.092;7.006;2022-09-12T01:37:49;16.00;99.90
14908;DHT22;7545;52.092;7.006;2022-09-12T01:40:21;16.00;99.90
14908;DHT22;7545;52.092;7.006;2022-09-12T01:43:07;16.00;99.90
14908;DHT22;7545;52.092;7.006;2022-09-12T01:45:44;16.00;99.90
14908;DHT22;7545;52.092;7.006;2022-09-12T01:48:15;15.90;99.90
14908;DHT22;7545;52.092;7.006;2022-09-12T01:50:47;15.90;99.90
14908;DHT22;7545;52.092;7.006;2022-09-12T01:53:26;15.90;99.90
14908;DHT22;7545;52.092;7.006;2022-09-12T01:56:02;15.90;99.90
14908;DHT22;7545;52.092;7.006;2022-09-12T01:58:53;15.80;99.90
14908;DHT22;7545;52.092;7.006;2022-09-12T02:01:35;15.80;99.90
14908;DHT22;7545;52.092;7.006;2022-09-12T02:04:08;15.80;99.90
14908;DHT22;7545;52.092;7.006;2022-09-12T02:06:51;15.80;99.90
14908;DHT22;7545;52.092;7.006;2022-09-12T02:09:46;15.70;99.90
14908;DHT22;7545;52.092;7.006;2022-09-12T02:12:16;15.70;99.90
14908;DHT22;7545;52.092;7.006;2022-09-12T02:14:50;15.70;99.90
14908;DHT22;7545;52.092;7.006;2022-09-12T02:17:23;15.70;99.90
14908;DHT22;7545;52.092;7.006;2022-09-12T02:19:55;15.70;99.90
14908;DHT22;7545;52.092;7.006;2022-09-12T02:22:26;15.80;99.90
14908;DHT22;7545;52.092;7.006;2022-09-12T02:24:56;15.70;99.90
14908;DHT22;7545;52.092;7.006;2022-09-12T02:27:30;15.70;99.90
14908;DHT22;7545;52.092;7.006;2022-09-12T02:29:58;15.70;99.90
14908;DHT22;7545;52.092;7.006;2022-09-12T02:37:57;15.60;99.90
14908;DHT22;7545;52.092;7.006;2022-09-12T02:40:24;15.60;99.90
14908;DHT22;7545;52.092;7.006;2022-09-12T02:42:50;15.60;99.90
14908;DHT22;7545;52.092;7.006;2022-09-12T02:45:17;15.60;99.90
14908;DHT22;7545;52.092;7.006;2022-09-12T02:47:46;15.50;99.90
14908;DHT22;7545;52.092;7.006;2022-09-12T02:50:13;15.50;99.90
14908;DHT22;7545;52.092;7.006;2022-09-12T02:52:40;15.40;99.90
14908;DHT22;7545;52.092;7.006;2022-09-12T02:55:07;15.40;99.90
14908;DHT22;7545;52.092;7.006;2022-09-12T02:57:36;15.40;99.90
14908;DHT22;7545;52.092;7.006;2022-09-12T03:00:03;15.40;99.90
14908;DHT22;7545;52.092;7.006;2022-09-12T03:05:25;15.40;99.90
14908;DHT22;7545;52.092;7.006;2022-09-12T03:13:40;15.30;99.90
14908;DHT22;7545;52.092;7.006;2022-09-12T03:19:30;15.20;99.90
14908;DHT22;7545;52.092;7.006;2022-09-12T03:24:35;15.20;99.90
14908;DHT22;7545;52.092;7.006;2022-09-12T03:27:14;15.20;99.90
14908;DHT22;7545;52.092;7.006;2022-09-12T03:29:42;15.20;99.90
14908;DHT22;7545;52.092;7.006;2022-09-12T03:32:08;15.10;99.90
14908;DHT22;7545;52.092;7.006;2022-09-12T03:34:34;15.10;99.90
14908;DHT22;7545;52.092;7.006;2022-09-12T03:37:00;15.10;99.90
14908;DHT22;7545;52.092;7.006;2022-09-12T03:39:26;15.10;99.90
14908;DHT22;7545;52.092;7.006;2022-09-12T03:41:53;15.00;99.90
14908;DHT22;7545;52.092;7.006;2022-09-12T03:44:19;15.10;99.90
14908;DHT22;7545;52.092;7.006;2022-09-12T03:46:45;15.10;99.90
14908;DHT22;7545;52.092;7.006;2022-09-12T03:49:11;15.00;99.90
14908;DHT22;7545;52.092;7.006;2022-09-12T03:51:38;15.00;99.90
14908;DHT22;7545;52.092;7.006;2022-09-12T03:54:03;15.00;99.90
14908;DHT22;7545;52.092;7.006;2022-09-12T03:56:29;15.00;99.90
14908;DHT22;7545;52.092;7.006;2022-09-12T03:58:54;14.90;99.90
14908;DHT22;7545;52.092;7.006;2022-09-12T04:01:20;14.90;99.90
14908;DHT22;7545;52.092;7.006;2022-09-12T04:03:48;14.90;99.90
14908;DHT22;7545;52.092;7.006;2022-09-12T04:06:17;14.90;99.90
14908;DHT22;7545;52.092;7.006;2022-09-12T04:08:43;14.90;99.90
14908;DHT22;7545;52.092;7.006;2022-09-12T04:11:14;14.90;99.90
14908;DHT22;7545;52.092;7.006;2022-09-12T04:13:41;14.90;99.90
14908;DHT22;7545;52.092;7.006;2022-09-12T04:16:08;14.90;99.90
14908;DHT22;7545;52.092;7.006;2022-09-12T04:18:33;14.80;99.90
14908;DHT22;7545;52.092;7.006;2022-09-12T04:21:08;14.80;99.90
14908;DHT22;7545;52.092;7.006;2022-09-12T04:23:34;14.80;99.90
14908;DHT22;7545;52.092;7.006;2022-09-12T04:26:01;14.80;99.90
14908;DHT22;7545;52.092;7.006;2022-09-12T04:28:28;14.80;99.90
14908;DHT22;7545;52.092;7.006;2022-09-12T04:30:54;14.70;99.90
14908;DHT22;7545;52.092;7.006;2022-09-12T04:33:20;14.80;99.90
14908;DHT22;7545;52.092;7.006;2022-09-12T04:35:46;14.80;99.90
14908;DHT22;7545;52.092;7.006;2022-09-12T04:38:13;14.80;99.90
14908;DHT22;7545;52.092;7.006;2022-09-12T04:40:38;14.70;99.90
14908;DHT22;7545;52.092;7.006;2022-09-12T04:43:04;14.70;99.90
14908;DHT22;7545;52.092;7.006;2022-09-12T04:45:31;14.70;99.90
14908;DHT22;7545;52.092;7.006;2022-09-12T04:47:57;14.70;99.90
14908;DHT22;7545;52.092;7.006;2022-09-12T04:50:22;14.70;99.90
14908;DHT22;7545;52.092;7.006;2022-09-12T04:52:52;14.70;99.90
14908;DHT22;7545;52.092;7.006;2022-09-12T04:55:18;14.70;99.90
14908;DHT22;7545;52.092;7.006;2022-09-12T04:57:44;14.70;99.90
14908;DHT22;7545;52.092;7.006;2022-09-12T05:00:10;14.70;99.90
14908;DHT22;7545;52.092;7.006;2022-09-12T05:02:42;14.70;99.90
14908;DHT22;7545;52.092;7.006;2022-09-12T05:05:08;14.60;99.90
14908;DHT22;7545;52.092;7.006;2022-09-12T05:07:35;14.60;99.90
14908;DHT22;7545;52.092;7.006;2022-09-12T05:10:01;14.60;99.90
14908;DHT22;7545;52.092;7.006;2022-09-12T05:12:28;14.60;99.90
14908;DHT22;7545;52.092;7.006;2022-09-12T05:14:54;14.60;99.90
14908;DHT22;7545;52.092;7.006;2022-09-12T05:17:20;14.60;99.90
14908;DHT22;7545;52.092;7.006;2022-09-12T05:19:47;14.50;99.90
14908;DHT22;7545;52.092;7.006;2022-09-12T05:22:12;14.60;99.90
14908;DHT22;7545;52.092;7.006;2022-09-12T05:24:38;14.60;99.90
14908;DHT22;7545;52.092;7.006;2022-09-12T05:27:07;14.60;99.90
14908;DHT22;7545;52.092;7.006;2022-09-12T05:29:33;14.60;99.90
14908;DHT22;7545;52.092;7.006;2022-09-12T05:31:59;14.60;99.90
14908;DHT22;7545;52.092;7.006;2022-09-12T05:34:24;14.60;99.90
14908;DHT22;7545;52.092;7.006;2022-09-12T05:36:52;14.60;99.90
14908;DHT22;7545;52.092;7.006;2022-09-12T05:39:17;14.60;99.90
14908;DHT22;7545;52.092;7.006;2022-09-12T05:41:43;14.60;99.90
14908;DHT22;7545;52.092;7.006;2022-09-12T05:44:12;14.70;99.90
14908;DHT22;7545;52.092;7.006;2022-09-12T05:46:40;14.70;99.90
14908;DHT22;7545;52.092;7.006;2022-09-12T05:49:08;14.70;99.90
14908;DHT22;7545;52.092;7.006;2022-09-12T05:51:36;14.80;99.90
14908;DHT22;7545;52.092;7.006;2022-09-12T05:54:08;14.80;99.90
14908;DHT22;7545;52.092;7.006;2022-09-12T05:56:37;14.80;99.90
14908;DHT22;7545;52.092;7.006;2022-09-12T05:59:06;14.80;99.90
14908;DHT22;7545;52.092;7.006;2022-09-12T06:01:33;14.90;99.90
14908;DHT22;7545;52.092;7.006;2022-09-12T06:04:00;14.90;99.90
14908;DHT22;7545;52.092;7.006;2022-09-12T06:06:28;14.90;99.90
14908;DHT22;7545;52.092;7.006;2022-09-12T06:08:59;15.00;99.90
14908;DHT22;7545;52.092;7.006;2022-09-12T06:11:28;15.00;99.90
14908;DHT22;7545;52.092;7.006;2022-09-12T06:13:55;15.10;99.90
14908;DHT22;7545;52.092;7.006;2022-09-12T06:16:24;15.10;99.90
14908;DHT22;7545;52.092;7.006;2022-09-12T06:18:55;15.20;99.90
14908;DHT22;7545;52.092;7.006;2022-09-12T06:21:22;15.20;99.90
14908;DHT22;7545;52.092;7.006;2022-09-12T06:23:48;15.30;99.90
14908;DHT22;7545;52.092;7.006;2022-09-12T06:26:16;15.30;99.90
14908;DHT22;7545;52.092;7.006;2022-09-12T06:28:43;15.40;99.90
14908;DHT22;7545;52.092;7.006;2022-09-12T06:31:11;15.50;99.90
14908;DHT22;7545;52.092;7.006;2022-09-12T06:33:40;15.50;99.90
14908;DHT22;7545;52.092;7.006;2022-09-12T06:36:12;15.60;99.90
14908;DHT22;7545;52.092;7.006;2022-09-12T06:38:38;15.60;99.90
14908;DHT22;7545;52.092;7.006;2022-09-12T06:41:06;15.70;99.90
14908;DHT22;7545;52.092;7.006;2022-09-12T06:43:32;15.70;99.90
14908;DHT22;7545;52.092;7.006;2022-09-12T06:45:58;15.80;99.90
14908;DHT22;7545;52.092;7.006;2022-09-12T06:48:23;15.80;99.90
14908;DHT22;7545;52.092;7.006;2022-09-12T06:51:00;15.90;99.90
14908;DHT22;7545;52.092;7.006;2022-09-12T06:53:27;15.90;99.90
14908;DHT22;7545;52.092;7.006;2022-09-12T06:55:55;15.90;99.90
14908;DHT22;7545;52.092;7.006;2022-09-12T06:58:21;16.00;99.90
14908;DHT22;7545;52.092;7.006;2022-09-12T07:00:47;16.00;99.90
14908;DHT22;7545;52.092;7.006;2022-09-12T07:03:12;16.00;99.90
14908;DHT22;7545;52.092;7.006;2022-09-12T07:05:38;16.10;99.90
14908;DHT22;7545;52.092;7.006;2022-09-12T07:08:04;16.10;99.90
14908;DHT22;7545;52.092;7.006;2022-09-12T07:10:30;16.20;99.90
14908;DHT22;7545;52.092;7.006;2022-09-12T07:12:56;16.20;99.90
14908;DHT22;7545;52.092;7.006;2022-09-12T07:15:21;16.20;99.90
14908;DHT22;7545;52.092;7.006;2022-09-12T07:17:47;16.20;99.90
14908;DHT22;7545;52.092;7.006;2022-09-12T07:20:12;16.30;99.90
14908;DHT22;7545;52.092;7.006;2022-09-12T07:22:38;16.30;99.90
14908;DHT22;7545;52.092;7.006;2022-09-12T07:25:03;16.40;99.90
14908;DHT22;7545;52.092;7.006;2022-09-12T07:27:29;16.40;99.90
14908;DHT22;7545;52.092;7.006;2022-09-12T07:29:55;16.40;99.90
14908;DHT22;7545;52.092;7.006;2022-09-12T07:32:20;16.40;99.90
14908;DHT22;7545;52.092;7.006;2022-09-12T07:34:47;16.50;99.90
14908;DHT22;7545;52.092;7.006;2022-09-12T07:37:14;16.50;99.90
14908;DHT22;7545;52.092;7.006;2022-09-12T07:39:39;16.60;99.90
14908;DHT22;7545;52.092;7.006;2022-09-12T07:42:05;16.60;99.90
14908;DHT22;7545;52.092;7.006;2022-09-12T07:44:31;16.60;99.90
14908;DHT22;7545;52.092;7.006;2022-09-12T07:46:57;16.70;99.90
14908;DHT22;7545;52.092;7.006;2022-09-12T07:49:22;16.70;99.90
14908;DHT22;7545;52.092;7.006;2022-09-12T07:51:48;16.80;99.90
14908;DHT22;7545;52.092;7.006;2022-09-12T07:54:14;16.80;99.90
14908;DHT22;7545;52.092;7.006;2022-09-12T07:56:40;16.80;99.90
14908;DHT22;7545;52.092;7.006;2022-09-12T07:59:07;16.90;99.90
14908;DHT22;7545;52.092;7.006;2022-09-12T08:01:32;16.90;99.90
14908;DHT22;7545;52.092;7.006;2022-09-12T08:03:59;16.90;99.90
14908;DHT22;7545;52.092;7.006;2022-09-12T08:06:26;17.00;99.90
14908;DHT22;7545;52.092;7.006;2022-09-12T08:08:54;17.00;99.90
14908;DHT22;7545;52.092;7.006;2022-09-12T08:11:21;17.00;99.90
14908;DHT22;7545;52.092;7.006;2022-09-12T08:13:48;17.10;99.90
14908;DHT22;7545;52.092;7.006;2022-09-12T08:16:16;17.10;99.90
14908;DHT22;7545;52.092;7.006;2022-09-12T08:18:43;17.20;99.90
14908;DHT22;7545;52.092;7.006;2022-09-12T08:21:14;17.20;99.90
14908;DHT22;7545;52.092;7.006;2022-09-12T08:23:41;17.30;99.90
14908;DHT22;7545;52.092;7.006;2022-09-12T08:26:07;17.30;99.90
14908;DHT22;7545;52.092;7.006;2022-09-12T08:28:34;17.40;99.90
14908;DHT22;7545;52.092;7.006;2022-09-12T08:31:01;17.40;99.90
14908;DHT22;7545;52.092;7.006;2022-09-12T08:33:28;17.50;99.90
14908;DHT22;7545;52.092;7.006;2022-09-12T08:36:09;17.50;99.90
14908;DHT22;7545;52.092;7.006;2022-09-12T08:38:36;17.50;99.90
14908;DHT22;7545;52.092;7.006;2022-09-12T08:49:27;17.70;99.90
14908;DHT22;7545;52.092;7.006;2022-09-12T08:51:55;17.70;99.90
14908;DHT22;7545;52.092;7.006;2022-09-12T08:54:28;17.70;99.90
14908;DHT22;7545;52.092;7.006;2022-09-12T08:57:13;17.70;99.90
14908;DHT22;7545;52.092;7.006;2022-09-12T08:59:43;17.70;99.90
14908;DHT22;7545;52.092;7.006;2022-09-12T09:12:54;17.90;99.90
14908;DHT22;7545;52.092;7.006;2022-09-12T09:15:46;17.90;99.90
14908;DHT22;7545;52.092;7.006;2022-09-12T09:18:20;18.00;99.90
14908;DHT22;7545;52.092;7.006;2022-09-12T09:20:59;18.00;99.90
14908;DHT22;7545;52.092;7.006;2022-09-12T09:23:32;18.10;99.90
14908;DHT22;7545;52.092;7.006;2022-09-12T09:26:13;18.10;99.90
14908;DHT22;7545;52.092;7.006;2022-09-12T09:28:54;18.20;99.90
14908;DHT22;7545;52.092;7.006;2022-09-12T09:31:23;18.30;99.90
14908;DHT22;7545;52.092;7.006;2022-09-12T09:33:52;18.30;99.90
14908;DHT22;7545;52.092;7.006;2022-09-12T09:39:03;18.50;99.90
14908;DHT22;7545;52.092;7.006;2022-09-12T09:44:28;18.70;99.90
14908;DHT22;7545;52.092;7.006;2022-09-12T09:46:54;18.80;99.90
14908;DHT22;7545;52.092;7.006;2022-09-12T09:49:25;18.90;99.90
14908;DHT22;7545;52.092;7.006;2022-09-12T09:51:51;19.00;99.90
14908;DHT22;7545;52.092;7.006;2022-09-12T09:54:23;19.10;99.90
14908;DHT22;7545;52.092;7.006;2022-09-12T09:56:49;19.10;99.90
14908;DHT22;7545;52.092;7.006;2022-09-12T09:59:19;19.20;99.90
14908;DHT22;7545;52.092;7.006;2022-09-12T10:02:02;19.40;99.90
14908;DHT22;7545;52.092;7.006;2022-09-12T10:04:30;19.50;99.90
14908;DHT22;7545;52.092;7.006;2022-09-12T10:07:01;19.60;99.90
14908;DHT22;7545;52.092;7.006;2022-09-12T10:09:30;19.70;99.90
14908;DHT22;7545;52.092;7.006;2022-09-12T10:12:00;19.80;99.90
14908;DHT22;7545;52.092;7.006;2022-09-12T10:14:43;19.80;99.90
14908;DHT22;7545;52.092;7.006;2022-09-12T10:19:51;20.10;99.90
14908;DHT22;7545;52.092;7.006;2022-09-12T10:22:20;20.30;99.90
14908;DHT22;7545;52.092;7.006;2022-09-12T10:24:52;20.40;99.90
14908;DHT22;7545;52.092;7.006;2022-09-12T10:27:22;20.50;99.90
14908;DHT22;7545;52.092;7.006;2022-09-12T10:35:03;20.80;99.90
14908;DHT22;7545;52.092;7.006;2022-09-12T10:37:37;21.00;99.90
14908;DHT22;7545;52.092;7.006;2022-09-12T10:40:06;21.10;99.90
14908;DHT22;7545;52.092;7.006;2022-09-12T10:42:54;21.10;99.90
14908;DHT22;7545;52.092;7.006;2022-09-12T10:45:31;21.20;99.90
14908;DHT22;7545;52.092;7.006;2022-09-12T10:48:01;21.30;99.90
14908;DHT22;7545;52.092;7.006;2022-09-12T10:50:30;21.40;99.90
14908;DHT22;7545;52.092;7.006;2022-09-12T10:53:26;21.50;99.90
14908;DHT22;7545;52.092;7.006;2022-09-12T10:56:11;21.60;99.90
14908;DHT22;7545;52.092;7.006;2022-09-12T10:59:05;21.70;99.90
14908;DHT22;7545;52.092;7.006;2022-09-12T11:09:47;22.00;99.90
14908;DHT22;7545;52.092;7.006;2022-09-12T11:12:25;22.00;99.90
14908;DHT22;7545;52.092;7.006;2022-09-12T11:15:19;22.10;99.90
14908;DHT22;7545;52.092;7.006;2022-09-12T11:20:56;22.10;99.90
14908;DHT22;7545;52.092;7.006;2022-09-12T11:26:33;22.30;99.90
14908;DHT22;7545;52.092;7.006;2022-09-12T11:34:54;22.60;99.90
14908;DHT22;7545;52.092;7.006;2022-09-12T11:42:40;22.90;99.90
14908;DHT22;7545;52.092;7.006;2022-09-12T11:45:17;23.00;99.90
14908;DHT22;7545;52.092;7.006;2022-09-12T11:47:48;23.00;99.90
14908;DHT22;7545;52.092;7.006;2022-09-12T11:50:29;23.00;99.90
14908;DHT22;7545;52.092;7.006;2022-09-12T11:53:02;23.00;99.90
14908;DHT22;7545;52.092;7.006;2022-09-12T11:55:44;23.10;99.90
14908;DHT22;7545;52.092;7.006;2022-09-12T11:58:15;23.20;99.90
14908;DHT22;7545;52.092;7.006;2022-09-12T12:00:47;23.20;99.90
14908;DHT22;7545;52.092;7.006;2022-09-12T12:03:44;23.30;99.90
14908;DHT22;7545;52.092;7.006;2022-09-12T12:09:30;23.40;99.90
14908;DHT22;7545;52.092;7.006;2022-09-12T12:12:00;23.40;99.90
14908;DHT22;7545;52.092;7.006;2022-09-12T12:14:47;23.50;99.90
14908;DHT22;7545;52.092;7.006;2022-09-12T12:17:20;23.50;99.90
14908;DHT22;7545;52.092;7.006;2022-09-12T12:19:55;23.50;99.90
14908;DHT22;7545;52.092;7.006;2022-09-12T12:22:23;23.50;99.90
14908;DHT22;7545;52.092;7.006;2022-09-12T12:25:06;23.50;99.90
14908;DHT22;7545;52.092;7.006;2022-09-12T12:36:06;23.50;99.90
14908;DHT22;7545;52.092;7.006;2022-09-12T12:38:53;23.50;99.90
14908;DHT22;7545;52.092;7.006;2022-09-12T12:43:47;23.50;99.90
14908;DHT22;7545;52.092;7.006;2022-09-12T12:46:24;23.50;99.90
14908;DHT22;7545;52.092;7.006;2022-09-12T12:49:20;23.50;99.90
14908;DHT22;7545;52.092;7.006;2022-09-12T12:51:58;23.60;99.90
14908;DHT22;7545;52.092;7.006;2022-09-12T12:57:20;23.70;99.90
14908;DHT22;7545;52.092;7.006;2022-09-12T12:59:58;23.70;99.90
14908;DHT22;7545;52.092;7.006;2022-09-12T13:02:47;23.80;99.90
14908;DHT22;7545;52.092;7.006;2022-09-12T13:05:21;23.80;99.90
14908;DHT22;7545;52.092;7.006;2022-09-12T13:08:04;23.80;99.90
14908;DHT22;7545;52.092;7.006;2022-09-12T13:10:31;23.80;99.90
14908;DHT22;7545;52.092;7.006;2022-09-12T13:12:59;23.70;99.90
14908;DHT22;7545;52.092;7.006;2022-09-12T13:15:51;23.70;99.90
14908;DHT22;7545;52.092;7.006;2022-09-12T13:18:28;23.70;99.90
14908;DHT22;7545;52.092;7.006;2022-09-12T13:21:12;23.70;99.90
14908;DHT22;7545;52.092;7.006;2022-09-12T13:23:38;23.70;99.90
14908;DHT22;7545;52.092;7.006;2022-09-12T13:26:11;23.70;99.90
14908;DHT22;7545;52.092;7.006;2022-09-12T13:28:36;23.70;99.90
14908;DHT22;7545;52.092;7.006;2022-09-12T13:33:49;23.70;99.90
14908;DHT22;7545;52.092;7.006;2022-09-12T13:39:24;23.80;99.90
14908;DHT22;7545;52.092;7.006;2022-09-12T13:44:44;23.80;99.90
14908;DHT22;7545;52.092;7.006;2022-09-12T13:47:29;23.90;99.90
14908;DHT22;7545;52.092;7.006;2022-09-12T13:49:57;23.90;99.90
14908;DHT22;7545;52.092;7.006;2022-09-12T13:52:32;23.80;99.90
14908;DHT22;7545;52.092;7.006;2022-09-12T13:54:59;23.80;99.90
14908;DHT22;7545;52.092;7.006;2022-09-12T13:57:30;23.80;99.90
14908;DHT22;7545;52.092;7.006;2022-09-12T13:59:58;23.80;99.90
14908;DHT22;7545;52.092;7.006;2022-09-12T14:02:26;23.70;99.90
14908;DHT22;7545;52.092;7.006;2022-09-12T14:04:53;23.70;99.90
14908;DHT22;7545;52.092;7.006;2022-09-12T14:10:39;23.70;99.90
14908;DHT22;7545;52.092;7.006;2022-09-12T14:13:11;23.70;99.90
14908;DHT22;7545;52.092;7.006;2022-09-12T14:15:38;23.70;99.90
14908;DHT22;7545;52.092;7.006;2022-09-12T14:18:31;23.60;99.90
14908;DHT22;7545;52.092;7.006;2022-09-12T14:21:10;23.60;99.90
14908;DHT22;7545;52.092;7.006;2022-09-12T14:23:41;23.60;99.90
14908;DHT22;7545;52.092;7.006;2022-09-12T14:26:10;23.60;99.90
14908;DHT22;7545;52.092;7.006;2022-09-12T14:28:41;23.60;99.90
14908;DHT22;7545;52.092;7.006;2022-09-12T14:31:27;23.60;99.90
14908;DHT22;7545;52.092;7.006;2022-09-12T14:36:55;23.60;99.90
14908;DHT22;7545;52.092;7.006;2022-09-12T14:39:40;23.60;99.90
14908;DHT22;7545;52.092;7.006;2022-09-12T14:42:19;23.60;99.90
14908;DHT22;7545;52.092;7.006;2022-09-12T14:44:56;23.60;99.90
14908;DHT22;7545;52.092;7.006;2022-09-12T14:47:25;23.60;99.90
14908;DHT22;7545;52.092;7.006;2022-09-12T14:49:52;23.60;99.90
14908;DHT22;7545;52.092;7.006;2022-09-12T14:52:38;23.60;99.90
14908;DHT22;7545;52.092;7.006;2022-09-12T14:55:28;23.60;99.90
14908;DHT22;7545;52.092;7.006;2022-09-12T15:00:54;23.70;99.90
14908;DHT22;7545;52.092;7.006;2022-09-12T15:05:56;23.70;99.90
14908;DHT22;7545;52.092;7.006;2022-09-12T15:08:22;23.70;99.90
14908;DHT22;7545;52.092;7.006;2022-09-12T15:10:48;23.70;99.90
14908;DHT22;7545;52.092;7.006;2022-09-12T15:13:20;23.70;99.90
14908;DHT22;7545;52.092;7.006;2022-09-12T15:15:49;23.70;99.90
14908;DHT22;7545;52.092;7.006;2022-09-12T15:18:15;23.70;99.90
14908;DHT22;7545;52.092;7.006;2022-09-12T15:20:43;23.70;99.90
14908;DHT22;7545;52.092;7.006;2022-09-12T15:26:00;23.70;99.90
14908;DHT22;7545;52.092;7.006;2022-09-12T15:28:26;23.60;99.90
14908;DHT22;7545;52.092;7.006;2022-09-12T15:30:53;23.60;99.90
14908;DHT22;7545;52.092;7.006;2022-09-12T15:33:22;23.50;99.90
14908;DHT22;7545;52.092;7.006;2022-09-12T15:35:49;23.50;99.90
14908;DHT22;7545;52.092;7.006;2022-09-12T15:38:15;23.50;99.90
14908;DHT22;7545;52.092;7.006;2022-09-12T15:40:41;23.50;99.90
14908;DHT22;7545;52.092;7.006;2022-09-12T15:43:09;23.40;99.90
14908;DHT22;7545;52.092;7.006;2022-09-12T15:45:36;23.50;99.90
14908;DHT22;7545;52.092;7.006;2022-09-12T15:48:02;23.40;99.90
14908;DHT22;7545;52.092;7.006;2022-09-12T15:50:28;23.40;99.90
14908;DHT22;7545;52.092;7.006;2022-09-12T15:52:54;23.40;99.90
14908;DHT22;7545;52.092;7.006;2022-09-12T15:55:23;23.40;99.90
14908;DHT22;7545;52.092;7.006;2022-09-12T15:57:49;23.30;99.90
14908;DHT22;7545;52.092;7.006;2022-09-12T16:00:17;23.30;99.90
14908;DHT22;7545;52.092;7.006;2022-09-12T16:02:44;23.30;99.90
14908;DHT22;7545;52.092;7.006;2022-09-12T16:05:14;23.20;99.90
14908;DHT22;7545;52.092;7.006;2022-09-12T16:07:41;23.30;99.90
14908;DHT22;7545;52.092;7.006;2022-09-12T16:10:09;23.30;99.90
14908;DHT22;7545;52.092;7.006;2022-09-12T16:12:37;23.30;99.90
14908;DHT22;7545;52.092;7.006;2022-09-12T16:15:03;23.20;99.90
14908;DHT22;7545;52.092;7.006;2022-09-12T16:17:29;23.30;99.90
14908;DHT22;7545;52.092;7.006;2022-09-12T16:19:54;23.30;99.90
14908;DHT22;7545;52.092;7.006;2022-09-12T16:22:20;23.30;99.90
14908;DHT22;7545;52.092;7.006;2022-09-12T16:24:46;23.30;99.90
14908;DHT22;7545;52.092;7.006;2022-09-12T16:27:11;23.30;99.90
14908;DHT22;7545;52.092;7.006;2022-09-12T16:29:37;23.30;99.90
14908;DHT22;7545;52.092;7.006;2022-09-12T16:32:02;23.30;99.90
14908;DHT22;7545;52.092;7.006;2022-09-12T16:34:28;23.30;99.90
14908;DHT22;7545;52.092;7.006;2022-09-12T16:36:54;23.30;99.90
14908;DHT22;7545;52.092;7.006;2022-09-12T16:39:19;23.20;99.90
14908;DHT22;7545;52.092;7.006;2022-09-12T16:41:45;23.20;99.90
14908;DHT22;7545;52.092;7.006;2022-09-12T16:44:11;23.20;99.90
14908;DHT22;7545;52.092;7.006;2022-09-12T16:46:36;23.20;99.90
14908;DHT22;7545;52.092;7.006;2022-09-12T16:49:03;23.10;99.90
14908;DHT22;7545;52.092;7.006;2022-09-12T16:51:32;23.10;99.90
14908;DHT22;7545;52.092;7.006;2022-09-12T16:54:00;23.10;99.90
14908;DHT22;7545;52.092;7.006;2022-09-12T16:56:25;23.00;99.90
14908;DHT22;7545;52.092;7.006;2022-09-12T16:58:52;23.00;99.90
14908;DHT22;7545;52.092;7.006;2022-09-12T17:01:20;23.00;99.90
14908;DHT22;7545;52.092;7.006;2022-09-12T17:03:46;23.00;99.90
14908;DHT22;7545;52.092;7.006;2022-09-12T17:06:14;22.90;99.90
14908;DHT22;7545;52.092;7.006;2022-09-12T17:08:42;22.90;99.90
14908;DHT22;7545;52.092;7.006;2022-09-12T17:11:14;22.90;99.90
14908;DHT22;7545;52.092;7.006;2022-09-12T17:13:40;22.80;99.90
14908;DHT22;7545;52.092;7.006;2022-09-12T17:16:10;22.80;99.90
14908;DHT22;7545;52.092;7.006;2022-09-12T17:18:37;22.80;99.90
14908;DHT22;7545;52.092;7.006;2022-09-12T17:21:02;22.80;99.90
14908;DHT22;7545;52.092;7.006;2022-09-12T17:23:28;22.70;99.90
14908;DHT22;7545;52.092;7.006;2022-09-12T17:25:54;22.60;99.90
14908;DHT22;7545;52.092;7.006;2022-09-12T17:28:20;22.60;99.90
14908;DHT22;7545;52.092;7.006;2022-09-12T17:30:45;22.50;99.90
14908;DHT22;7545;52.092;7.006;2022-09-12T17:33:11;22.50;99.90
14908;DHT22;7545;52.092;7.006;2022-09-12T17:35:38;22.40;99.90
14908;DHT22;7545;52.092;7.006;2022-09-12T17:38:07;22.30;99.90
14908;DHT22;7545;52.092;7.006;2022-09-12T17:40:34;22.20;99.90
14908;DHT22;7545;52.092;7.006;2022-09-12T17:43:00;22.20;99.90
14908;DHT22;7545;52.092;7.006;2022-09-12T17:45:26;22.10;99.90
14908;DHT22;7545;52.092;7.006;2022-09-12T17:47:52;22.10;99.90
14908;DHT22;7545;52.092;7.006;2022-09-12T17:50:18;22.00;99.90
14908;DHT22;7545;52.092;7.006;2022-09-12T17:52:44;21.90;99.90
14908;DHT22;7545;52.092;7.006;2022-09-12T17:55:10;21.90;99.90
14908;DHT22;7545;52.092;7.006;2022-09-12T17:57:36;21.80;99.90
14908;DHT22;7545;52.092;7.006;2022-09-12T18:00:04;21.70;99.90
14908;DHT22;7545;52.092;7.006;2022-09-12T18:02:29;21.70;99.90
14908;DHT22;7545;52.092;7.006;2022-09-12T18:04:55;21.60;99.90
14908;DHT22;7545;52.092;7.006;2022-09-12T18:07:21;21.50;99.90
14908;DHT22;7545;52.092;7.006;2022-09-12T18:09:49;21.40;99.90
14908;DHT22;7545;52.092;7.006;2022-09-12T18:12:16;21.40;99.90
14908;DHT22;7545;52.092;7.006;2022-09-12T18:14:42;21.30;99.90
14908;DHT22;7545;52.092;7.006;2022-09-12T18:17:08;21.30;99.90
14908;DHT22;7545;52.092;7.006;2022-09-12T18:19:36;21.20;99.90
14908;DHT22;7545;52.092;7.006;2022-09-12T18:22:02;21.10;99.90
14908;DHT22;7545;52.092;7.006;2022-09-12T18:24:28;21.10;99.90
14908;DHT22;7545;52.092;7.006;2022-09-12T18:26:53;21.00;99.90